Echo, Utah
Current Conditions -  °F | °C
As of 2:58 PM on Monday 20 Oct 2014 (Local Time) from KHIF Reporting Station
Clear Clear  
Wind Chill: 74°   Ceiling: Unl
Heat Index: 74°   Visibility: 10mi
Dew Point: 38°   Wind: 7mph
Humidity: 27%   Direction: 160°SSE
Pressure: 30"   Gusts: NA
Location:  40.98°N, 111.45°W
Report Text: KHIF 202058Z AUTO 16006KT 10SM CLR 23/03 A3000 RMK AO2 SLP113 T02340032 57020
Loading
Personal Weather Stations






























Interactive Weather Map
Tropical Storm Tracking
New forecast layout! Learn more

10-Day Weather Forecast

Advertisements
Track Severe Weather on mobile